createdAt,value
2023-02-28T00:01:30.281Z,-5.62
2023-02-28T00:04:02.483Z,-5.55
2023-02-28T00:06:34.566Z,-5.56
2023-02-28T00:09:06.634Z,-5.57
2023-02-28T00:11:38.964Z,-5.49
2023-02-28T00:14:10.925Z,-5.45
2023-02-28T00:16:43.025Z,-5.43
2023-02-28T00:19:15.136Z,-5.40
2023-02-28T00:21:47.267Z,-5.41
2023-02-28T00:24:19.387Z,-5.40
2023-02-28T00:26:51.473Z,-5.48
2023-02-28T00:29:23.779Z,-5.48
2023-02-28T00:31:56.062Z,-5.50
2023-02-28T00:34:28.214Z,-5.56
2023-02-28T00:37:00.271Z,-5.61
2023-02-28T00:39:32.295Z,-5.60
2023-02-28T00:42:04.838Z,-5.63
2023-02-28T00:44:36.758Z,-5.64
2023-02-28T00:47:08.689Z,-5.72
2023-02-28T00:49:40.867Z,-5.80
2023-02-28T00:52:14.312Z,-5.69
2023-02-28T00:54:46.254Z,-5.76
2023-02-28T00:57:19.685Z,-5.87
2023-02-28T00:59:51.651Z,-5.91
2023-02-28T01:02:24.768Z,-5.92
2023-02-28T01:04:58.066Z,-5.88
2023-02-28T01:07:30.031Z,-5.89
2023-02-28T01:10:01.968Z,-5.85
2023-02-28T01:12:33.955Z,-5.86
2023-02-28T01:15:06.872Z,-5.79
2023-02-28T01:17:39.001Z,-5.82
2023-02-28T01:20:12.015Z,-5.83
2023-02-28T01:22:45.025Z,-5.76
2023-02-28T01:25:17.539Z,-5.75
2023-02-28T01:27:49.480Z,-5.83
2023-02-28T01:30:21.753Z,-5.88
2023-02-28T01:32:54.579Z,-5.89
2023-02-28T01:35:26.644Z,-5.89
2023-02-28T01:38:09.530Z,-5.84
2023-02-28T01:40:32.674Z,-5.91
2023-02-28T01:43:04.424Z,-5.82
2023-02-28T01:45:37.854Z,-5.92
2023-02-28T01:48:11.827Z,-5.95
2023-02-28T01:50:47.306Z,-5.89
2023-02-28T01:53:22.181Z,-5.99
2023-02-28T01:55:56.537Z,-6.09
2023-02-28T01:58:28.558Z,-6.04
2023-02-28T02:01:01.065Z,-6.19
2023-02-28T02:03:33.935Z,-6.22
2023-02-28T02:06:06.698Z,-6.25
2023-02-28T02:08:40.197Z,-6.25
2023-02-28T02:11:15.590Z,-6.27
2023-02-28T02:13:56.647Z,-6.30
2023-02-28T02:17:03.276Z,-6.25
2023-02-28T02:20:06.418Z,-6.23
2023-02-28T02:22:50.136Z,-6.19
2023-02-28T02:25:37.114Z,-6.10
2023-02-28T02:28:26.958Z,-6.04
2023-02-28T02:31:17.101Z,-6.00
2023-02-28T02:34:18.860Z,-5.89
2023-02-28T02:37:12.717Z,-5.97
2023-02-28T02:39:56.658Z,-5.96
2023-02-28T02:42:37.361Z,-5.93
2023-02-28T02:45:12.445Z,-5.92
2023-02-28T02:47:47.254Z,-5.91
2023-02-28T02:50:22.200Z,-5.89
2023-02-28T02:52:58.017Z,-5.95
2023-02-28T02:55:32.459Z,-5.85
2023-02-28T02:58:08.379Z,-5.91
2023-02-28T03:00:43.683Z,-5.89
2023-02-28T03:03:18.749Z,-5.99
2023-02-28T03:05:52.693Z,-6.04
2023-02-28T03:08:25.053Z,-6.06
2023-02-28T03:11:02.568Z,-6.09
2023-02-28T03:14:00.202Z,-6.09
2023-02-28T03:16:50.918Z,-6.09
2023-02-28T03:19:37.798Z,-6.13
2023-02-28T03:22:19.011Z,-6.15
2023-02-28T03:24:53.785Z,-6.16
2023-02-28T03:27:48.328Z,-6.09
2023-02-28T03:30:45.829Z,-6.11
2023-02-28T03:33:26.635Z,-6.13
2023-02-28T03:36:02.064Z,-6.12
2023-02-28T03:38:43.618Z,-6.09
2023-02-28T03:41:18.822Z,-6.04
2023-02-28T03:44:02.809Z,-6.01
2023-02-28T03:46:37.844Z,-6.14
2023-02-28T03:49:18.460Z,-6.09
2023-02-28T03:51:53.155Z,-5.98
2023-02-28T03:54:28.082Z,-6.09
2023-02-28T03:57:06.051Z,-6.14
2023-02-28T03:59:40.985Z,-6.09
2023-02-28T04:02:13.849Z,-6.12
2023-02-28T04:04:47.889Z,-6.02
2023-02-28T04:07:19.994Z,-6.09
2023-02-28T04:09:52.246Z,-6.05
2023-02-28T04:12:24.860Z,-6.07
2023-02-28T04:14:57.538Z,-6.11
2023-02-28T04:17:29.788Z,-6.12
2023-02-28T04:20:01.919Z,-6.18
2023-02-28T04:22:34.246Z,-6.17
2023-02-28T04:25:07.437Z,-6.21
2023-02-28T04:27:39.784Z,-6.08
2023-02-28T04:30:13.295Z,-6.14
2023-02-28T04:32:45.299Z,-6.21
2023-02-28T04:35:17.772Z,-6.14
2023-02-28T04:37:50.303Z,-6.12
2023-02-28T04:40:23.413Z,-6.05
2023-02-28T04:42:56.374Z,-6.08
2023-02-28T04:45:30.346Z,-6.04
2023-02-28T04:48:02.364Z,-5.81
2023-02-28T04:50:34.855Z,-5.80
2023-02-28T04:53:07.515Z,-5.77
2023-02-28T04:55:41.192Z,-5.72
2023-02-28T04:58:14.038Z,-5.69
2023-02-28T05:00:46.474Z,-5.64
2023-02-28T05:03:18.915Z,-5.52
2023-02-28T05:05:51.974Z,-5.36
2023-02-28T05:08:26.594Z,-5.15
2023-02-28T05:10:59.121Z,-5.03
2023-02-28T05:13:32.843Z,-4.76
2023-02-28T05:16:04.560Z,-4.27
2023-02-28T05:18:36.840Z,-3.97
2023-02-28T05:21:18.325Z,-3.83
2023-02-28T05:23:50.982Z,-3.74
2023-02-28T05:26:24.083Z,-3.73
2023-02-28T05:28:56.677Z,-3.68
2023-02-28T05:31:29.445Z,-3.44
2023-02-28T05:34:02.261Z,-2.94
2023-02-28T05:36:34.938Z,-2.62
2023-02-28T05:39:10.571Z,-2.27
2023-02-28T05:41:46.697Z,-2.37
2023-02-28T05:44:18.883Z,-2.41
2023-02-28T05:46:51.340Z,-2.30
2023-02-28T05:49:24.168Z,-2.05
2023-02-28T05:51:56.601Z,-1.90
2023-02-28T05:54:28.566Z,-1.75
2023-02-28T05:57:01.263Z,-1.62
2023-02-28T05:59:33.596Z,-1.60
2023-02-28T06:02:06.793Z,-1.67
2023-02-28T06:04:39.162Z,-1.84
2023-02-28T06:07:12.060Z,-1.76
2023-02-28T06:09:44.435Z,-1.68
2023-02-28T06:12:17.226Z,-1.71
2023-02-28T06:14:49.742Z,-1.48
2023-02-28T06:17:22.010Z,-1.07
2023-02-28T06:19:54.240Z,-0.51
2023-02-28T06:22:26.167Z,-0.18
2023-02-28T06:24:59.189Z,-0.10
2023-02-28T06:27:34.943Z,-0.24
2023-02-28T06:30:08.013Z,-0.49
2023-02-28T06:32:42.179Z,-0.80
2023-02-28T06:35:15.097Z,-1.03
2023-02-28T06:37:48.396Z,-1.29
2023-02-28T06:40:20.873Z,-1.52
2023-02-28T06:42:53.376Z,-1.67
2023-02-28T06:45:27.214Z,-1.79
2023-02-28T06:48:01.436Z,-1.90
2023-02-28T06:50:34.734Z,-1.92
2023-02-28T06:53:07.144Z,-1.99
2023-02-28T06:55:41.452Z,-1.96
2023-02-28T06:58:17.536Z,-1.93
2023-02-28T07:00:53.158Z,-1.87
2023-02-28T07:03:25.745Z,-1.86
2023-02-28T07:05:58.295Z,-1.80
2023-02-28T07:08:30.807Z,-1.75
2023-02-28T07:11:04.511Z,-1.69
2023-02-28T07:13:38.301Z,-1.70
2023-02-28T07:16:13.991Z,-1.66
2023-02-28T07:18:46.628Z,-1.57
2023-02-28T07:21:18.511Z,-1.53
2023-02-28T07:23:50.554Z,-1.46
2023-02-28T07:26:23.526Z,-1.35
2023-02-28T07:28:56.149Z,-1.21
2023-02-28T07:31:29.098Z,-1.03
2023-02-28T07:34:02.005Z,-0.94
2023-02-28T07:36:34.493Z,-0.94
2023-02-28T07:39:06.751Z,-0.99
2023-02-28T07:41:40.539Z,-1.04
2023-02-28T07:44:13.727Z,-0.93
2023-02-28T07:46:46.509Z,-0.90
2023-02-28T07:49:19.133Z,-0.87
2023-02-28T07:51:51.208Z,-0.73
2023-02-28T07:54:23.456Z,-0.61
2023-02-28T07:56:55.845Z,-0.53
2023-02-28T07:59:29.507Z,-0.33
2023-02-28T08:02:02.273Z,-0.24
2023-02-28T08:04:37.191Z,-0.27
2023-02-28T08:07:10.540Z,-0.19
2023-02-28T08:09:43.578Z,-0.13
2023-02-28T08:12:16.074Z,-0.22
2023-02-28T08:14:48.453Z,-0.30
2023-02-28T08:17:20.873Z,-0.21
2023-02-28T08:19:53.091Z,-0.25
2023-02-28T08:22:25.559Z,-0.24
2023-02-28T08:24:58.120Z,-0.12
2023-02-28T08:27:30.718Z,0.05
2023-02-28T08:30:04.400Z,0.16
2023-02-28T08:32:36.778Z,0.29
2023-02-28T08:35:10.441Z,0.23
2023-02-28T08:37:43.004Z,0.26
2023-02-28T08:40:16.862Z,0.32
2023-02-28T08:42:49.653Z,0.16
2023-02-28T08:45:22.135Z,-0.07
2023-02-28T08:47:55.788Z,-0.28
2023-02-28T08:50:27.671Z,-0.22
2023-02-28T08:53:01.523Z,-0.40
2023-02-28T08:55:33.802Z,-0.45
2023-02-28T08:58:06.254Z,-0.50
2023-02-28T09:00:38.857Z,-0.44
2023-02-28T09:03:12.416Z,-0.42
2023-02-28T09:05:46.234Z,-0.58
2023-02-28T09:08:18.402Z,-0.50
2023-02-28T09:10:50.511Z,-0.48
2023-02-28T09:13:23.106Z,-0.44
2023-02-28T09:15:56.013Z,-0.32
2023-02-28T09:18:28.730Z,-0.25
2023-02-28T09:21:01.082Z,-0.09
2023-02-28T09:23:33.424Z,0.09
2023-02-28T09:26:06.283Z,-0.02
2023-02-28T09:28:38.505Z,0.00
2023-02-28T09:31:16.707Z,0.16
2023-02-28T09:33:53.255Z,0.28
2023-02-28T09:36:41.591Z,0.27
2023-02-28T09:39:01.560Z,0.19
2023-02-28T09:41:44.305Z,0.20
2023-02-28T09:44:19.606Z,0.22
2023-02-28T09:46:54.645Z,0.04
2023-02-28T09:49:29.594Z,0.07
2023-02-28T09:52:10.431Z,0.23
2023-02-28T09:54:42.945Z,0.13
2023-02-28T09:57:23.402Z,0.01
2023-02-28T09:59:58.361Z,0.00
2023-02-28T10:02:59.531Z,0.04
2023-02-28T10:05:34.655Z,0.15
2023-02-28T10:08:23.138Z,0.28
2023-02-28T10:10:58.330Z,0.42
2023-02-28T10:13:35.982Z,0.41
2023-02-28T10:16:17.142Z,0.39
2023-02-28T10:18:54.674Z,0.47
2023-02-28T10:21:45.700Z,0.27
2023-02-28T10:24:26.833Z,0.17
2023-02-28T10:27:18.685Z,0.17
2023-02-28T10:29:56.297Z,0.18
2023-02-28T10:32:37.393Z,0.09
2023-02-28T10:35:18.230Z,0.19
2023-02-28T10:37:56.554Z,0.18
2023-02-28T10:40:39.465Z,0.23
2023-02-28T10:43:20.961Z,0.27
2023-02-28T10:46:05.056Z,0.21
2023-02-28T10:48:45.908Z,0.28
2023-02-28T10:51:20.832Z,0.24
2023-02-28T10:54:02.935Z,0.29
2023-02-28T10:56:30.225Z,0.23
2023-02-28T10:59:21.493Z,0.27
2023-02-28T11:01:54.479Z,0.31
2023-02-28T11:04:37.263Z,0.30
2023-02-28T11:07:22.965Z,0.22
2023-02-28T11:09:57.292Z,0.36
2023-02-28T11:12:34.021Z,0.27
2023-02-28T11:15:25.109Z,0.08
2023-02-28T11:18:00.160Z,0.08
2023-02-28T11:20:34.934Z,0.07
2023-02-28T11:23:09.468Z,0.13
2023-02-28T11:25:42.496Z,0.17
2023-02-28T11:28:32.504Z,0.24
2023-02-28T11:31:08.069Z,0.34
2023-02-28T11:33:46.221Z,0.43
2023-02-28T11:36:21.594Z,0.47
2023-02-28T11:38:58.806Z,0.58
2023-02-28T11:41:41.460Z,0.74
2023-02-28T11:44:25.560Z,0.73
2023-02-28T11:47:02.066Z,0.88
2023-02-28T11:49:54.842Z,0.83
2023-02-28T11:52:38.952Z,0.84
2023-02-28T11:55:32.159Z,0.65
2023-02-28T11:58:23.945Z,0.52
2023-02-28T12:01:23.166Z,0.49
2023-02-28T12:04:10.144Z,0.35
2023-02-28T12:06:53.779Z,0.33
2023-02-28T12:09:40.467Z,0.19
2023-02-28T12:12:21.234Z,0.17
2023-02-28T12:15:28.940Z,0.20
2023-02-28T12:18:16.042Z,0.16
2023-02-28T12:20:53.636Z,0.13
2023-02-28T12:23:45.230Z,0.12
2023-02-28T12:26:23.472Z,0.07
2023-02-28T12:28:58.472Z,0.16
2023-02-28T12:31:33.591Z,0.06
2023-02-28T12:34:08.725Z,0.03
2023-02-28T12:36:43.623Z,-0.05
2023-02-28T12:39:19.580Z,0.00
2023-02-28T12:41:55.772Z,-0.13
2023-02-28T12:44:55.272Z,-0.17
2023-02-28T12:47:27.596Z,-0.20
2023-02-28T12:50:03.066Z,-0.22
2023-02-28T12:52:55.983Z,-0.18
2023-02-28T12:55:47.443Z,-0.31
2023-02-28T12:58:40.266Z,-0.21
2023-02-28T13:01:36.437Z,-0.28
2023-02-28T13:04:20.402Z,-0.24
2023-02-28T13:07:04.079Z,-0.24
2023-02-28T13:09:36.960Z,-0.26
2023-02-28T13:12:19.118Z,-0.27
2023-02-28T13:14:52.854Z,-0.22
2023-02-28T13:17:27.340Z,-0.28
2023-02-28T13:20:01.501Z,-0.19
2023-02-28T13:22:45.328Z,-0.27
2023-02-28T13:25:25.998Z,-0.25
2023-02-28T13:28:00.808Z,-0.25
2023-02-28T13:30:57.143Z,-0.21
2023-02-28T13:33:39.220Z,-0.22
2023-02-28T13:36:14.569Z,-0.20
2023-02-28T13:38:54.108Z,-0.18
2023-02-28T13:41:39.963Z,-0.19
2023-02-28T13:44:25.373Z,-0.11
2023-02-28T13:47:04.041Z,-0.07
2023-02-28T13:49:38.516Z,-0.04
2023-02-28T13:52:20.964Z,-0.01
2023-02-28T13:55:06.201Z,0.01
2023-02-28T13:57:59.049Z,0.05
2023-02-28T14:00:45.998Z,0.03
2023-02-28T14:03:30.167Z,0.05
2023-02-28T14:06:20.348Z,0.18
2023-02-28T14:09:15.228Z,0.16
2023-02-28T14:11:48.567Z,0.08
2023-02-28T14:14:41.453Z,0.08
2023-02-28T14:17:19.252Z,0.12
2023-02-28T14:19:51.417Z,0.20
2023-02-28T14:22:49.332Z,0.29
2023-02-28T14:25:30.579Z,0.27
2023-02-28T14:28:21.923Z,0.46
2023-02-28T14:31:06.409Z,0.36
2023-02-28T14:33:44.709Z,0.23
2023-02-28T14:36:22.497Z,0.15
2023-02-28T14:38:57.580Z,0.30
2023-02-28T14:41:39.608Z,0.15
2023-02-28T14:44:26.797Z,0.07
2023-02-28T14:47:03.128Z,0.03
2023-02-28T14:49:48.681Z,0.03
2023-02-28T14:52:23.823Z,0.01
2023-02-28T14:55:04.805Z,0.17
2023-02-28T14:57:39.639Z,0.16
2023-02-28T15:00:17.876Z,0.04
2023-02-28T15:02:50.694Z,-0.01
2023-02-28T15:05:34.706Z,0.05
2023-02-28T15:08:16.321Z,0.03
2023-02-28T15:10:57.659Z,-0.01
2023-02-28T15:13:35.621Z,0.11
2023-02-28T15:16:13.605Z,0.01
2023-02-28T15:18:51.564Z,0.01
2023-02-28T15:21:33.200Z,0.12
2023-02-28T15:24:09.805Z,0.16
2023-02-28T15:26:44.995Z,0.15
2023-02-28T15:29:20.439Z,0.12
2023-02-28T15:32:04.796Z,0.16
2023-02-28T15:34:43.434Z,0.19
2023-02-28T15:37:32.449Z,0.22
2023-02-28T15:40:22.278Z,0.21
2023-02-28T15:43:18.088Z,0.19
2023-02-28T15:45:54.835Z,0.25
2023-02-28T15:48:32.883Z,0.31
2023-02-28T15:51:10.797Z,0.33
2023-02-28T15:53:51.375Z,0.36
2023-02-28T15:56:26.524Z,0.43
2023-02-28T15:59:00.711Z,0.50
2023-02-28T16:01:33.825Z,0.56
2023-02-28T16:04:20.507Z,0.72
2023-02-28T16:07:06.761Z,0.65
2023-02-28T16:09:39.126Z,0.61
2023-02-28T16:12:13.817Z,0.60
2023-02-28T16:14:46.500Z,0.62
2023-02-28T16:17:27.814Z,0.59
2023-02-28T16:20:00.091Z,0.61
2023-02-28T16:22:33.208Z,0.61
2023-02-28T16:25:05.619Z,0.62
2023-02-28T16:27:39.918Z,0.79
2023-02-28T16:30:12.945Z,0.82
2023-02-28T16:32:46.055Z,0.84
2023-02-28T16:35:19.185Z,0.78
2023-02-28T16:37:52.830Z,0.78
2023-02-28T16:40:28.932Z,0.87
2023-02-28T16:43:02.995Z,0.95
2023-02-28T16:45:35.178Z,0.81
2023-02-28T16:48:07.267Z,0.92
2023-02-28T16:50:39.971Z,0.80
2023-02-28T16:53:12.693Z,0.74
2023-02-28T16:55:45.017Z,0.69
2023-02-28T16:58:20.317Z,0.73
2023-02-28T17:00:53.588Z,0.80
2023-02-28T17:03:33.547Z,0.68
2023-02-28T17:06:02.268Z,0.64
2023-02-28T17:08:34.745Z,0.61
2023-02-28T17:11:09.085Z,0.60
2023-02-28T17:13:41.403Z,0.56
2023-02-28T17:16:21.976Z,0.51
2023-02-28T17:18:55.512Z,0.42
2023-02-28T17:21:27.760Z,0.53
2023-02-28T17:24:00.241Z,0.44
2023-02-28T17:26:33.126Z,0.43
2023-02-28T17:29:07.331Z,0.49
2023-02-28T17:31:41.296Z,0.47
2023-02-28T17:34:14.841Z,0.36
2023-02-28T17:36:52.062Z,0.53
2023-02-28T17:39:26.795Z,0.38
2023-02-28T17:41:59.056Z,0.39
2023-02-28T17:44:31.213Z,0.39
2023-02-28T17:47:03.841Z,0.44
2023-02-28T17:49:36.369Z,0.72
2023-02-28T17:52:08.754Z,0.70
2023-02-28T17:54:40.791Z,0.68
2023-02-28T17:57:15.932Z,0.46
2023-02-28T17:59:48.454Z,0.34
2023-02-28T18:02:20.649Z,0.30
2023-02-28T18:04:52.508Z,0.20
2023-02-28T18:07:26.201Z,-0.06
2023-02-28T18:09:58.174Z,-0.09
2023-02-28T18:12:30.862Z,-0.32
2023-02-28T18:15:03.325Z,-0.33
2023-02-28T18:17:35.379Z,-0.48
2023-02-28T18:20:08.540Z,-0.59
2023-02-28T18:22:41.888Z,-0.63
2023-02-28T18:25:18.486Z,-0.52
2023-02-28T18:27:59.334Z,-0.66
2023-02-28T18:30:34.722Z,-0.58
2023-02-28T18:33:07.103Z,-0.72
2023-02-28T18:35:39.558Z,-0.79
2023-02-28T18:38:15.192Z,-0.86
2023-02-28T18:40:56.127Z,-0.79
2023-02-28T18:43:28.925Z,-0.83
2023-02-28T18:46:10.133Z,-0.91
2023-02-28T18:48:42.831Z,-0.86
2023-02-28T18:51:17.864Z,-0.81
2023-02-28T18:53:50.233Z,-0.84
2023-02-28T18:56:24.903Z,-0.77
2023-02-28T18:58:57.067Z,-0.76
2023-02-28T19:01:32.180Z,-0.61
2023-02-28T19:04:05.445Z,-0.57
2023-02-28T19:06:38.378Z,-0.57
2023-02-28T19:09:11.607Z,-0.52
2023-02-28T19:11:43.796Z,-0.46
2023-02-28T19:14:15.863Z,-0.46
2023-02-28T19:16:48.038Z,-0.42
2023-02-28T19:19:20.234Z,-0.44
2023-02-28T19:21:52.142Z,-0.42
2023-02-28T19:24:24.160Z,-0.33
2023-02-28T19:26:56.068Z,-0.40
2023-02-28T19:29:28.091Z,-0.29
2023-02-28T19:32:00.244Z,-0.32
2023-02-28T19:34:33.154Z,-0.33
2023-02-28T19:37:05.267Z,-0.36
2023-02-28T19:39:43.713Z,-0.35
2023-02-28T19:42:18.667Z,-0.47
2023-02-28T19:44:51.165Z,-0.45
2023-02-28T19:47:23.091Z,-0.50
2023-02-28T19:49:55.691Z,-0.56
2023-02-28T19:52:27.590Z,-0.71
2023-02-28T19:54:59.778Z,-0.79
2023-02-28T19:57:33.455Z,-0.86
2023-02-28T20:00:05.818Z,-0.92
2023-02-28T20:02:39.807Z,-0.99
2023-02-28T20:05:11.838Z,-1.13
2023-02-28T20:07:45.187Z,-1.29
2023-02-28T20:10:17.215Z,-1.26
2023-02-28T20:12:49.737Z,-1.39
2023-02-28T20:15:21.785Z,-1.46
2023-02-28T20:17:53.869Z,-1.49
2023-02-28T20:20:26.214Z,-1.64
2023-02-28T20:22:58.167Z,-1.75
2023-02-28T20:25:30.428Z,-1.81
2023-02-28T20:28:02.488Z,-1.78
2023-02-28T20:30:34.672Z,-1.79
2023-02-28T20:33:07.198Z,-1.89
2023-02-28T20:35:39.519Z,-1.97
2023-02-28T20:38:11.960Z,-2.00
2023-02-28T20:40:43.951Z,-2.20
2023-02-28T20:43:16.282Z,-2.13
2023-02-28T20:46:01.469Z,-2.19
2023-02-28T20:48:36.052Z,-2.33
2023-02-28T20:51:08.931Z,-2.36
2023-02-28T20:53:41.042Z,-2.47
2023-02-28T20:56:18.869Z,-2.49
2023-02-28T20:58:52.711Z,-2.44
2023-02-28T21:01:27.179Z,-2.50
2023-02-28T21:04:07.114Z,-2.60
2023-02-28T21:06:43.327Z,-2.65
2023-02-28T21:09:16.823Z,-2.71
2023-02-28T21:11:49.563Z,-2.77
2023-02-28T21:14:23.917Z,-2.82
2023-02-28T21:16:55.874Z,-2.91
2023-02-28T21:19:27.778Z,-2.97
2023-02-28T21:21:59.754Z,-2.91
2023-02-28T21:24:32.120Z,-2.87
2023-02-28T21:27:04.083Z,-2.90
2023-02-28T21:29:36.057Z,-2.98
2023-02-28T21:32:08.365Z,-2.98
2023-02-28T21:34:41.694Z,-3.13
2023-02-28T21:37:13.634Z,-3.18
2023-02-28T21:39:46.458Z,-3.18
2023-02-28T21:42:18.814Z,-3.12
2023-02-28T21:44:50.801Z,-3.17
2023-02-28T21:47:22.684Z,-3.21
2023-02-28T21:49:54.684Z,-3.21
2023-02-28T21:52:26.685Z,-3.30
2023-02-28T21:54:58.789Z,-3.32
2023-02-28T21:57:32.738Z,-3.36
2023-02-28T22:00:05.444Z,-3.40
2023-02-28T22:02:39.031Z,-3.46
2023-02-28T22:05:11.189Z,-3.52
2023-02-28T22:07:44.651Z,-3.48
2023-02-28T22:10:16.636Z,-3.55
2023-02-28T22:12:48.715Z,-3.60
2023-02-28T22:15:20.902Z,-3.66
2023-02-28T22:17:54.464Z,-3.62
2023-02-28T22:20:26.415Z,-3.66
2023-02-28T22:22:58.449Z,-3.66
2023-02-28T22:25:30.542Z,-3.68
2023-02-28T22:28:02.379Z,-3.56
2023-02-28T22:30:34.212Z,-3.64
2023-02-28T22:33:06.274Z,-3.71
2023-02-28T22:35:38.348Z,-3.79
2023-02-28T22:38:10.714Z,-3.80
2023-02-28T22:40:43.296Z,-3.85
2023-02-28T22:43:15.385Z,-3.84
2023-02-28T22:45:47.306Z,-3.92
2023-02-28T22:48:19.194Z,-3.95
2023-02-28T22:50:52.527Z,-3.83
2023-02-28T22:53:24.906Z,-3.80
2023-02-28T22:55:57.640Z,-3.86
2023-02-28T22:58:30.130Z,-3.84
2023-02-28T23:01:09.908Z,-3.91
2023-02-28T23:03:42.764Z,-3.94
2023-02-28T23:06:26.659Z,-3.97
2023-02-28T23:09:01.045Z,-3.94
2023-02-28T23:11:36.417Z,-4.05
2023-02-28T23:14:09.625Z,-3.99
2023-02-28T23:16:47.077Z,-3.98
2023-02-28T23:19:31.191Z,-3.99
2023-02-28T23:22:04.928Z,-4.06
2023-02-28T23:24:37.825Z,-4.18
2023-02-28T23:27:09.779Z,-4.23
2023-02-28T23:29:42.373Z,-4.12
2023-02-28T23:32:14.435Z,-4.16
2023-02-28T23:34:46.605Z,-4.26
2023-02-28T23:37:18.797Z,-4.28
2023-02-28T23:39:50.770Z,-4.37
2023-02-28T23:42:22.800Z,-4.43
2023-02-28T23:44:54.788Z,-4.39
2023-02-28T23:47:27.251Z,-4.35
2023-02-28T23:49:59.254Z,-4.36
2023-02-28T23:52:32.984Z,-4.32
2023-02-28T23:55:05.202Z,-4.41
2023-02-28T23:57:37.197Z,-4.40
